Time;durP1;ratioP1;P1;durP2;ratioP2;P2;SDS_P1;SDS_P2;PMS_P1;PMS_P2;Temp;Humidity;BMP_temperature;BMP_pressure;BME280_temperature;BME280_humidity;BME280_pressure;Samples;Min_cycle;Max_cycle;Signal;HPM_P1;HPM_P2
2022/04/21 00:00:46;;;;;;;120.40;84.60;;;;;;;4.62;100.00;98563.00;104928;1271;73959;-72
2022/04/21 00:03:13;;;;;;;121.70;84.30;;;;;;;4.61;100.00;98562.16;105273;1271;70387;-72
2022/04/21 00:05:40;;;;;;;118.80;83.60;;;;;;;4.59;100.00;98560.00;105234;1271;74153;-73
2022/04/21 00:08:07;;;;;;;113.90;82.00;;;;;;;4.57;100.00;98557.59;105224;1271;61410;-72
2022/04/21 00:10:34;;;;;;;117.20;82.20;;;;;;;4.56;100.00;98555.90;105029;1271;61374;-75
2022/04/21 00:13:00;;;;;;;117.00;84.70;;;;;;;4.53;100.00;98551.13;105291;1271;75399;-74
2022/04/21 00:15:27;;;;;;;112.50;82.20;;;;;;;4.50;100.00;98552.88;105229;1271;70533;-72
2022/04/21 00:17:54;;;;;;;117.30;81.90;;;;;;;4.46;100.00;98557.45;105213;1271;73174;-73
2022/04/21 00:20:21;;;;;;;118.20;82.80;;;;;;;4.43;100.00;98553.25;105217;1271;61301;-72
2022/04/21 00:25:32;;;;;;;125.00;86.00;;;;;;;4.37;100.00;98554.02;105290;1271;76232;-72
2022/04/21 00:27:59;;;;;;;116.60;84.60;;;;;;;4.33;100.00;98557.23;105281;1270;70119;-73
2022/04/21 00:30:26;;;;;;;119.30;83.40;;;;;;;4.27;100.00;98557.67;105305;1271;72877;-71
2022/04/21 00:32:53;;;;;;;118.90;84.40;;;;;;;4.21;100.00;98557.08;104964;1271;61263;-72
2022/04/21 00:35:19;;;;;;;118.60;83.50;;;;;;;4.16;100.00;98556.27;105295;1271;61386;-73
2022/04/21 00:37:58;;;;;;;111.70;80.20;;;;;;;4.08;100.00;98550.32;105159;1270;61352;-74
2022/04/21 00:40:29;;;;;;;107.20;76.80;;;;;;;3.99;100.00;98555.14;106343;1271;69505;-72
2022/04/21 00:42:56;;;;;;;108.10;78.40;;;;;;;3.91;100.00;98565.37;106747;1271;73161;-72
2022/04/21 00:45:24;;;;;;;111.10;78.70;;;;;;;3.84;100.00;98564.45;106370;1271;61070;-74
2022/04/21 00:47:53;;;;;;;111.00;81.60;;;;;;;3.79;100.00;98566.46;106658;1271;61085;-72
2022/04/21 00:50:23;;;;;;;112.90;83.10;;;;;;;3.75;100.00;98571.19;105624;1271;74604;-72
2022/04/21 00:52:50;;;;;;;;;;;;;;;3.71;100.00;98572.23;105141;1271;69185;-73
2022/04/21 00:55:18;;;;;;;99.10;72.10;;;;;;;3.65;100.00;98570.40;105017;1271;73585;-73
2022/04/21 00:57:46;;;;;;;97.90;74.10;;;;;;;3.63;100.00;98578.08;105322;1271;61445;-72
2022/04/21 01:00:14;;;;;;;96.70;72.30;;;;;;;3.60;100.00;98575.06;105383;1271;61371;-73
2022/04/21 01:02:51;;;;;;;96.30;73.70;;;;;;;3.57;100.00;98572.20;105073;1271;76162;-73
2022/04/21 01:05:31;;;;;;;107.60;78.60;;;;;;;3.55;100.00;98569.14;105226;1271;69424;-73
2022/04/21 01:07:59;;;;;;;109.70;80.90;;;;;;;3.50;100.00;98571.99;105223;1270;73671;-72
2022/04/21 01:10:28;;;;;;;112.60;83.70;;;;;;;3.45;100.00;98571.36;104995;1270;61333;-72
2022/04/21 01:12:55;;;;;;;117.60;87.50;;;;;;;3.40;100.00;98574.89;105294;1271;61343;-72
2022/04/21 01:15:22;;;;;;;123.30;88.70;;;;;;;3.35;100.00;98577.38;105263;1271;76536;-72
2022/04/21 01:17:52;;;;;;;120.20;88.20;;;;;;;3.29;100.00;98582.08;105251;1271;69874;-72
2022/04/21 01:20:20;;;;;;;119.30;89.60;;;;;;;3.21;100.00;98583.27;105209;1271;73252;-73
2022/04/21 01:22:47;;;;;;;119.90;88.70;;;;;;;3.14;100.00;98585.33;105338;1270;61387;-71
2022/04/21 01:25:14;;;;;;;125.00;88.90;;;;;;;3.07;100.00;98585.12;105215;1271;61377;-73
2022/04/21 01:27:41;;;;;;;122.90;89.70;;;;;;;3.00;100.00;98586.10;105221;1270;76151;-74
2022/04/21 01:30:10;;;;;;;132.70;93.50;;;;;;;2.92;100.00;98588.41;105365;1271;70619;-73
2022/04/21 01:32:42;;;;;;;126.80;92.70;;;;;;;2.83;100.00;98585.57;105223;1271;74157;-71
2022/04/21 01:35:10;;;;;;;127.30;92.50;;;;;;;2.76;100.00;98589.95;105049;1271;61442;-72
2022/04/21 01:43:08;;;;;;;126.70;93.80;;;;;;;2.65;100.00;98585.84;105090;1270;69229;-72
2022/04/21 01:45:35;;;;;;;139.50;97.60;;;;;;;2.65;100.00;98582.66;105231;1271;74366;-72
2022/04/21 01:48:03;;;;;;;138.10;100.80;;;;;;;2.66;100.00;98575.98;105235;1271;61396;-72
2022/04/21 01:50:30;;;;;;;137.90;99.10;;;;;;;2.68;100.00;98579.21;105234;1271;61661;-74
2022/04/21 01:52:58;;;;;;;138.40;100.50;;;;;;;2.70;100.00;98575.45;105001;1272;73614;-72
2022/04/21 01:55:26;;;;;;;136.00;100.10;;;;;;;2.73;100.00;98573.77;105265;1271;69331;-73
2022/04/21 01:57:53;;;;;;;143.00;104.70;;;;;;;2.74;100.00;98567.39;105331;1271;74006;-71
2022/04/21 02:00:29;;;;;;;146.90;104.60;;;;;;;2.76;100.00;98569.92;105221;1270;61193;-73
2022/04/21 02:02:56;;;;;;;145.80;104.10;;;;;;;2.79;100.00;98571.58;105254;1271;61230;-72
2022/04/21 02:05:22;;;;;;;143.50;100.80;;;;;;;2.81;100.00;98568.50;105190;1271;61230;-73
2022/04/21 02:07:49;;;;;;;138.30;98.60;;;;;;;2.81;100.00;98566.38;105000;1271;61441;-72
2022/04/21 02:10:17;;;;;;;133.30;99.20;;;;;;;2.81;100.00;98564.27;105068;1271;74403;-72
2022/04/21 02:12:45;;;;;;;131.40;96.90;;;;;;;2.81;100.00;98563.73;105212;1271;61477;-72
2022/04/21 02:15:12;;;;;;;136.90;97.20;;;;;;;2.82;100.00;98565.33;105200;1271;61232;-74
2022/04/21 02:17:39;;;;;;;143.10;102.90;;;;;;;2.80;100.00;98565.71;105206;1271;76337;-72
2022/04/21 02:20:09;;;;;;;135.60;103.10;;;;;;;2.79;100.00;98569.14;105246;1270;70725;-71
2022/04/21 02:22:36;;;;;;;141.60;104.10;;;;;;;2.78;100.00;98565.98;105273;1271;71643;-73
2022/04/21 02:25:04;;;;;;;132.40;102.20;;;;;;;2.79;100.00;98569.81;105232;1271;61457;-71
2022/04/21 02:27:31;;;;;;;139.90;102.70;;;;;;;2.78;100.00;98571.44;105502;1270;61231;-72
2022/04/21 02:29:59;;;;;;;123.30;94.60;;;;;;;2.79;100.00;98569.98;105068;1271;74624;-71
2022/04/21 02:32:25;;;;;;;120.90;93.20;;;;;;;2.80;100.00;98568.91;105236;1270;69882;-73
2022/04/21 02:34:55;;;;;;;116.40;88.90;;;;;;;2.79;100.00;98563.84;105108;1271;73158;-72
2022/04/21 02:37:23;;;;;;;111.90;86.60;;;;;;;2.79;100.00;98556.99;105236;1271;61334;-71
2022/04/21 02:39:49;;;;;;;106.30;79.50;;;;;;;2.80;100.00;98549.60;105433;1271;61180;-72
2022/04/21 02:42:16;;;;;;;99.00;73.40;;;;;;;2.79;100.00;98545.42;105235;1271;61269;-73
2022/04/21 02:44:43;;;;;;;95.70;72.70;;;;;;;2.77;100.00;98555.33;105216;1271;69376;-72
2022/04/21 02:47:10;;;;;;;98.40;73.70;;;;;;;2.77;100.00;98560.44;105179;1271;61257;-72
2022/04/21 02:49:37;;;;;;;100.80;75.90;;;;;;;2.78;100.00;98560.74;105251;1271;61319;-73
2022/04/21 02:52:09;;;;;;;106.10;78.10;;;;;;;2.78;100.00;98560.92;105262;1271;61274;-73
2022/04/21 02:57:21;;;;;;;111.90;81.30;;;;;;;2.78;100.00;98554.92;105102;1270;70387;-73
2022/04/21 02:59:54;;;;;;;118.90;88.40;;;;;;;2.79;100.00;98558.23;104991;1274;73899;-71
2022/04/21 03:02:22;;;;;;;128.90;92.10;;;;;;;2.79;100.00;98551.04;105183;1271;61367;-73
2022/04/21 03:04:51;;;;;;;128.10;91.60;;;;;;;2.80;100.00;98548.89;105565;1270;61295;-73
2022/04/21 03:07:22;;;;;;;128.70;95.20;;;;;;;2.80;100.00;98547.46;105204;1271;75168;-74
2022/04/21 03:09:50;;;;;;;135.50;97.20;;;;;;;2.80;100.00;98551.34;104985;1271;68683;-73
2022/04/21 03:12:17;;;;;;;140.70;101.10;;;;;;;2.81;100.00;98563.39;105616;1271;74086;-74
2022/04/21 03:14:43;;;;;;;145.50;102.20;;;;;;;2.84;100.00;98567.48;105224;1271;61324;-74
2022/04/21 03:17:10;;;;;;;126.00;93.10;;;;;;;2.87;100.00;98562.98;105240;1271;61263;-73
2022/04/21 03:19:37;;;;;;;120.70;79.70;;;;;;;2.89;100.00;98549.75;105232;1271;75738;-73
2022/04/21 03:24:50;;;;;;;106.20;68.90;;;;;;;2.90;100.00;98530.94;105250;1271;74351;-73
2022/04/21 03:27:17;;;;;;;102.40;71.40;;;;;;;2.91;100.00;98536.87;105218;1271;61175;-73
2022/04/21 03:29:43;;;;;;;102.90;70.40;;;;;;;2.91;100.00;98544.05;105235;1271;61305;-73
2022/04/21 03:32:13;;;;;;;96.10;67.50;;;;;;;2.93;100.00;98544.33;105235;1271;75963;-73
2022/04/21 03:34:42;;;;;;;95.50;66.40;;;;;;;2.93;100.00;98540.29;105293;1271;68821;-73
2022/04/21 03:37:13;;;;;;;94.10;65.80;;;;;;;2.91;100.00;98544.20;105289;1271;73295;-73
2022/04/21 03:39:42;;;;;;;85.10;64.10;;;;;;;2.91;100.00;98545.64;105246;1271;61317;-72
2022/04/21 03:42:23;;;;;;;88.60;63.80;;;;;;;2.90;100.00;98543.73;105582;1271;61256;-72
2022/04/21 03:44:51;;;;;;;84.00;61.50;;;;;;;2.88;100.00;98526.09;105179;1271;75682;-73
2022/04/21 03:47:18;;;;;;;87.60;63.50;;;;;;;2.86;100.00;98525.45;105300;1271;68660;-74
2022/04/21 03:49:45;;;;;;;84.90;65.40;;;;;;;2.85;100.00;98527.12;105224;1271;73369;-73
2022/04/21 03:52:11;;;;;;;81.30;63.50;;;;;;;2.84;100.00;98534.52;105213;1271;61185;-74
2022/04/21 03:54:39;;;;;;;82.70;63.70;;;;;;;2.85;100.00;98538.30;105260;1271;61795;-73
2022/04/21 03:57:07;;;;;;;82.50;64.30;;;;;;;2.86;100.00;98534.59;105265;1271;76405;-72
2022/04/21 03:59:36;;;;;;;90.90;65.50;;;;;;;2.87;100.00;98534.05;105292;1271;70124;-72
2022/04/21 04:02:04;;;;;;;91.10;65.90;;;;;;;2.90;100.00;98537.40;105214;1271;74462;-73
2022/04/21 04:04:33;;;;;;;86.20;61.60;;;;;;;2.95;100.00;98544.58;105218;1271;61186;-74
2022/04/21 04:12:31;;;;;;;72.30;59.40;;;;;;;3.05;100.00;98549.58;105278;1271;69264;-73
2022/04/21 04:14:59;;;;;;;77.50;57.50;;;;;;;3.09;100.00;98551.67;105226;1271;72712;-72
2022/04/21 04:17:26;;;;;;;73.40;56.90;;;;;;;3.15;100.00;98555.29;105267;1271;61426;-72
2022/04/21 04:19:52;;;;;;;78.10;55.00;;;;;;;3.19;100.00;98557.22;105254;1271;61241;-72
2022/04/21 04:22:19;;;;;;;75.40;56.30;;;;;;;3.20;100.00;98565.24;105240;1268;61317;-73
2022/04/21 04:24:46;;;;;;;69.70;55.90;;;;;;;3.21;100.00;98566.44;105269;1271;61270;-73
2022/04/21 04:27:13;;;;;;;71.70;53.90;;;;;;;3.22;100.00;98569.52;104975;1271;73922;-73
2022/04/21 04:29:39;;;;;;;67.40;53.50;;;;;;;3.26;100.00;98571.30;105242;1271;61302;-73
2022/04/21 04:32:07;;;;;;;72.70;54.60;;;;;;;3.31;100.00;98573.35;105263;1271;61387;-74
2022/04/21 04:34:33;;;;;;;73.50;54.80;;;;;;;3.37;100.00;98575.54;105023;1271;75422;-74
2022/04/21 04:37:00;;;;;;;72.70;55.20;;;;;;;3.40;100.00;98574.73;105239;1271;69110;-73
2022/04/21 04:39:26;;;;;;;63.00;51.90;;;;;;;3.40;100.00;98572.81;105240;1271;61365;-73
2022/04/21 04:44:38;;;;;;;68.10;51.20;;;;;;;3.33;100.00;98574.33;105223;1271;61872;-74
2022/04/21 04:47:04;;;;;;;65.40;52.40;;;;;;;3.30;100.00;98574.63;105182;1271;61253;-72
2022/04/21 04:49:30;;;;;;;62.90;51.90;;;;;;;3.30;100.00;98572.16;105247;1271;61217;-74
2022/04/21 04:51:57;;;;;;;71.60;56.20;;;;;;;3.37;100.00;98579.25;105241;1271;61270;-73
2022/04/21 04:54:25;;;;;;;77.40;60.10;;;;;;;3.44;100.00;98578.57;105264;1271;61272;-75
2022/04/21 04:56:51;;;;;;;92.90;66.20;;;;;;;3.52;100.00;98576.48;105209;1271;61149;-75
2022/04/21 04:59:18;;;;;;;97.90;69.20;;;;;;;3.63;100.00;98574.23;105222;1271;61363;-74
2022/04/21 05:01:45;;;;;;;96.50;68.80;;;;;;;3.75;100.00;98574.70;105117;1271;61314;-74
2022/04/21 05:04:15;;;;;;;96.90;70.80;;;;;;;3.92;100.00;98575.52;105242;1271;73180;-77
2022/04/21 05:06:41;;;;;;;93.90;69.10;;;;;;;4.27;100.00;98571.02;105232;1271;61269;-75
2022/04/21 05:09:10;;;;;;;84.90;63.80;;;;;;;4.91;100.00;98568.94;105233;1271;61244;-73
2022/04/21 05:11:39;;;;;;;76.30;61.60;;;;;;;5.53;100.00;98569.43;104933;1272;75150;-75
2022/04/21 05:14:07;;;;;;;72.70;60.80;;;;;;;6.03;100.00;98567.81;105298;1271;69945;-73
2022/04/21 05:16:36;;;;;;;75.60;62.10;;;;;;;6.38;100.00;98563.55;105570;1271;73374;-73
2022/04/21 05:19:04;;;;;;;71.40;60.30;;;;;;;6.53;100.00;98564.27;105272;1271;61410;-73
2022/04/21 05:21:32;;;;;;;69.10;59.20;;;;;;;6.72;100.00;98557.36;104967;1273;61858;-73
2022/04/21 05:24:02;;;;;;;66.60;55.70;;;;;;;6.90;100.00;98551.90;105309;1274;75130;-73
2022/04/21 05:26:29;;;;;;;64.60;54.70;;;;;;;7.39;100.00;98549.45;105291;1271;68983;-71
2022/04/21 05:28:58;;;;;;;60.50;52.10;;;;;;;7.97;100.00;98545.54;105346;1271;74937;-74
2022/04/21 05:31:26;;;;;;;57.70;51.40;;;;;;;8.32;100.00;98546.27;105172;1271;61385;-72
2022/04/21 05:33:54;;;;;;;56.90;50.60;;;;;;;8.42;100.00;98548.52;105408;1271;61202;-72
2022/04/21 05:36:22;;;;;;;56.10;50.00;;;;;;;8.43;100.00;98551.11;105267;1271;75466;-74
2022/04/21 05:38:52;;;;;;;59.40;50.10;;;;;;;8.36;100.00;98549.20;105222;1271;70511;-73
2022/04/21 05:41:19;;;;;;;62.00;53.80;;;;;;;8.17;100.00;98547.83;105016;1272;73336;-73
2022/04/21 05:43:49;;;;;;;62.20;52.40;;;;;;;8.01;100.00;98550.37;105197;1271;61394;-74
2022/04/21 05:46:17;;;;;;;62.60;52.70;;;;;;;7.97;100.00;98555.81;105236;1271;61462;-73
2022/04/21 05:48:44;;;;;;;65.70;53.60;;;;;;;7.89;100.00;98556.48;105255;1271;76394;-72
2022/04/21 05:51:11;;;;;;;70.70;56.20;;;;;;;7.85;100.00;98558.29;105212;1271;70393;-73
2022/04/21 05:53:45;;;;;;;65.30;56.20;;;;;;;7.83;100.00;98561.08;104766;1271;74378;-73
2022/04/21 05:56:12;;;;;;;68.10;55.40;;;;;;;7.91;100.00;98560.23;105038;1271;61448;-73
2022/04/21 05:58:39;;;;;;;65.50;55.60;;;;;;;8.08;100.00;98555.29;105261;1271;62054;-72
2022/04/21 06:01:07;;;;;;;63.90;53.90;;;;;;;8.26;100.00;98553.02;105242;1270;73648;-73
2022/04/21 06:03:38;;;;;;;67.60;55.80;;;;;;;8.72;100.00;98551.85;105190;1271;68720;-73
2022/04/21 06:06:06;;;;;;;64.10;55.00;;;;;;;9.10;100.00;98552.63;104980;1274;74276;-72
2022/04/21 06:08:32;;;;;;;65.40;56.80;;;;;;;9.40;99.65;98557.13;105181;1271;61317;-71
2022/04/21 06:10:59;;;;;;;65.30;57.90;;;;;;;9.59;99.78;98557.27;105103;1274;61416;-72
2022/04/21 06:13:26;;;;;;;68.60;57.30;;;;;;;9.91;99.17;98557.10;105285;1270;61552;-73
2022/04/21 06:15:54;;;;;;;66.90;57.50;;;;;;;10.17;98.26;98553.51;105284;1271;68322;-72
2022/04/21 06:18:20;;;;;;;65.50;58.20;;;;;;;10.32;97.33;98552.09;105324;1271;73913;-73
2022/04/21 06:20:47;;;;;;;68.90;59.00;;;;;;;10.59;97.13;98547.48;105338;1271;61526;-73
2022/04/21 06:23:14;;;;;;;71.40;58.00;;;;;;;10.91;97.23;98544.13;105331;1271;61244;-72
2022/04/21 06:25:42;;;;;;;68.50;59.00;;;;;;;11.21;96.18;98544.52;105291;1271;75487;-73
2022/04/21 06:28:10;;;;;;;72.90;61.60;;;;;;;11.30;95.50;98548.29;105253;1271;69086;-72
2022/04/21 06:30:38;;;;;;;65.10;57.50;;;;;;;11.50;95.29;98544.30;105173;1271;73172;-72
2022/04/21 06:33:05;;;;;;;65.30;58.20;;;;;;;11.72;94.52;98543.02;105337;1271;61377;-71
2022/04/21 06:35:32;;;;;;;68.00;58.00;;;;;;;11.91;94.02;98541.23;105236;1271;61298;-72
2022/04/21 06:37:59;;;;;;;56.70;48.90;;;;;;;12.03;93.19;98542.58;105230;1270;75761;-72
2022/04/21 06:40:25;;;;;;;52.40;44.50;;;;;;;12.02;91.70;98541.96;105114;1274;69584;-72
2022/04/21 06:42:52;;;;;;;52.10;42.50;;;;;;;12.07;91.65;98544.36;105213;1271;74635;-72
2022/04/21 06:48:04;;;;;;;43.50;38.60;;;;;;;12.03;89.78;98542.73;105219;1271;61288;-72
2022/04/21 06:50:34;;;;;;;40.70;35.20;;;;;;;12.01;90.47;98541.15;105185;1271;76487;-74
2022/04/21 06:53:08;;;;;;;47.60;40.90;;;;;;;11.86;89.97;98539.26;105106;1274;68963;-72
2022/04/21 06:55:35;;;;;;;39.90;35.50;;;;;;;11.73;89.49;98538.31;105406;1271;73725;-73
2022/04/21 06:58:02;;;;;;;38.70;31.40;;;;;;;11.55;90.32;98543.11;105226;1271;61416;-73
2022/04/21 07:00:29;;;;;;;38.60;34.40;;;;;;;11.56;90.74;98538.84;105205;1271;62209;-72
2022/04/21 07:02:57;;;;;;;35.30;31.00;;;;;;;11.58;90.83;98542.70;105303;1271;61281;-70
2022/04/21 07:05:26;;;;;;;37.30;32.00;;;;;;;11.60;90.86;98536.86;105338;1271;70161;-73
2022/04/21 07:07:53;;;;;;;33.60;29.10;;;;;;;11.58;89.78;98535.48;105379;1271;73708;-73
2022/04/21 07:10:21;;;;;;;31.10;27.80;;;;;;;11.24;88.92;98535.39;105239;1271;61403;-73
2022/04/21 07:12:48;;;;;;;32.70;28.60;;;;;;;11.06;89.40;98536.23;105258;1271;61264;-74
2022/04/21 07:15:15;;;;;;;27.50;24.70;;;;;;;11.01;90.20;98539.69;105230;1271;61170;-73
2022/04/21 07:17:42;;;;;;;33.30;28.40;;;;;;;11.06;90.44;98539.12;105222;1271;68113;-72
2022/04/21 07:20:11;;;;;;;26.40;23.10;;;;;;;11.17;90.40;98538.99;105255;1271;71619;-73
2022/04/21 07:22:39;;;;;;;25.00;22.50;;;;;;;11.10;88.54;98538.42;105150;1271;61282;-73
2022/04/21 07:25:09;;;;;;;23.60;21.00;;;;;;;10.90;88.50;98542.63;105061;1270;61987;-72
2022/04/21 07:27:37;;;;;;;23.10;20.60;;;;;;;10.74;89.06;98546.64;105077;1271;75199;-72
2022/04/21 07:30:06;;;;;;;22.90;20.20;;;;;;;10.78;90.00;98546.71;105154;1271;67621;-74
2022/04/21 07:32:33;;;;;;;23.50;20.80;;;;;;;10.84;89.89;98548.08;105119;1271;73889;-72
2022/04/21 07:35:00;;;;;;;21.00;18.90;;;;;;;10.94;90.07;98551.36;105255;1271;61202;-73
2022/04/21 07:37:27;;;;;;;22.30;20.00;;;;;;;10.98;88.86;98550.55;105049;1271;62163;-72
2022/04/21 07:39:54;;;;;;;21.90;19.60;;;;;;;11.11;88.94;98554.20;105330;1271;76356;-73
2022/04/21 07:42:21;;;;;;;17.30;15.60;;;;;;;11.17;88.43;98554.05;105183;1271;70191;-73
2022/04/21 07:44:48;;;;;;;18.30;16.50;;;;;;;11.29;89.10;98554.48;105226;1271;71299;-73
2022/04/21 07:47:14;;;;;;;20.30;16.00;;;;;;;11.50;89.13;98552.46;105179;1271;61288;-70
2022/04/21 07:49:48;;;;;;;18.60;16.80;;;;;;;11.73;89.06;98550.30;104969;1274;61247;-71
2022/04/21 07:55:25;;;;;;;19.50;17.60;;;;;;;11.78;85.62;98554.34;104668;1277;70446;-73
2022/04/21 07:57:58;;;;;;;17.30;15.70;;;;;;;11.85;86.33;98552.20;105126;1274;74316;-72
2022/04/21 08:00:25;;;;;;;17.70;15.90;;;;;;;12.00;86.02;98551.15;104712;1274;61328;-73
2022/04/21 08:02:52;;;;;;;18.80;16.90;;;;;;;12.13;85.67;98554.59;104951;1274;61587;-72
2022/04/21 08:05:21;;;;;;;17.70;16.00;;;;;;;12.32;85.08;98552.19;104971;1273;76077;-72
2022/04/21 08:07:49;;;;;;;16.90;15.30;;;;;;;12.59;84.85;98556.36;105265;1274;67934;-73
2022/04/21 08:10:16;;;;;;;16.80;15.00;;;;;;;12.89;83.91;98552.52;104957;1274;74240;-71
2022/04/21 08:12:48;;;;;;;15.40;13.90;;;;;;;13.17;83.82;98549.39;104975;1274;61272;-72
2022/04/21 08:15:22;;;;;;;16.10;14.60;;;;;;;13.50;82.81;98557.02;104980;1274;60958;-72
2022/04/21 08:17:48;;;;;;;15.60;14.10;;;;;;;13.63;81.74;98555.17;105390;1274;75286;-71
2022/04/21 08:20:15;;;;;;;17.50;15.90;;;;;;;13.76;81.93;98553.99;104975;1271;61444;-73
2022/04/21 08:22:42;;;;;;;16.70;15.00;;;;;;;13.81;81.17;98556.08;105042;1274;73508;-72
2022/04/21 08:33:24;;;;;;;16.60;15.20;;;;;;;14.05;79.88;98546.64;105203;1271;70454;-73
2022/04/21 08:35:57;;;;;;;16.50;14.90;;;;;;;13.97;79.32;98545.60;105189;1270;61249;-73
2022/04/21 08:38:29;;;;;;;15.10;13.70;;;;;;;13.69;77.66;98537.84;105081;1271;61313;-72
2022/04/21 08:40:58;;;;;;;15.30;13.80;;;;;;;13.49;78.50;98543.39;105369;1271;61126;-72
2022/04/21 08:43:27;;;;;;;15.90;14.30;;;;;;;13.53;78.98;98543.89;105300;1271;75212;-73
2022/04/21 08:45:55;;;;;;;15.60;14.10;;;;;;;13.51;77.00;98539.77;105192;1271;67751;-72
2022/04/21 08:48:23;;;;;;;15.90;14.40;;;;;;;13.42;76.68;98544.61;105246;1270;73184;-71
2022/04/21 08:50:50;;;;;;;14.40;13.20;;;;;;;13.23;76.55;98543.89;105199;1271;61524;-72
2022/04/21 08:53:23;;;;;;;16.20;14.80;;;;;;;13.16;77.11;98543.55;105067;1271;61339;-73
2022/04/21 08:55:51;;;;;;;16.10;14.70;;;;;;;13.29;78.49;98535.92;105265;1271;75796;-72
2022/04/21 08:58:19;;;;;;;15.20;13.80;;;;;;;13.56;78.43;98536.08;105327;1271;69397;-72
2022/04/21 09:00:46;;;;;;;15.90;14.40;;;;;;;13.83;77.21;98530.92;105417;1270;73724;-72
2022/04/21 09:03:14;;;;;;;14.90;13.60;;;;;;;14.09;77.28;98532.92;104952;1271;61556;-72
2022/04/21 09:05:41;;;;;;;15.50;14.10;;;;;;;14.23;76.16;98530.70;105192;1271;61889;-73
2022/04/21 09:08:25;;;;;;;16.50;15.00;;;;;;;14.19;74.97;98530.41;105032;1271;74700;-72
2022/04/21 09:11:08;;;;;;;16.70;15.10;;;;;;;14.17;74.99;98532.36;105210;1271;69630;-73
2022/04/21 09:13:40;;;;;;;17.10;15.30;;;;;;;14.12;72.26;98532.96;105063;1274;74372;-72
2022/04/21 09:16:09;;;;;;;17.50;15.80;;;;;;;13.84;70.96;98529.95;104990;1272;61352;-73
2022/04/21 09:18:44;;;;;;;16.50;15.20;;;;;;;13.75;72.11;98529.45;105210;1270;61240;-73
2022/04/21 09:21:15;;;;;;;17.40;15.80;;;;;;;13.93;72.46;98527.52;105191;1270;76389;-70
2022/04/21 09:23:44;;;;;;;17.00;15.40;;;;;;;14.11;71.95;98529.34;105158;1271;68177;-72
2022/04/21 09:26:13;;;;;;;16.30;14.70;;;;;;;14.29;72.47;98521.83;105188;1271;73309;-72
2022/04/21 09:28:39;;;;;;;17.60;16.00;;;;;;;14.55;72.81;98513.26;105258;1270;61374;-72
2022/04/21 09:31:10;;;;;;;16.00;14.50;;;;;;;14.63;71.96;98514.52;105224;1271;61309;-72
2022/04/21 09:33:44;;;;;;;16.10;14.60;;;;;;;14.57;71.50;98513.45;105207;1270;74900;-73
2022/04/21 09:36:11;;;;;;;16.60;15.00;;;;;;;14.39;69.79;98518.97;105210;1270;70444;-73
2022/04/21 09:38:39;;;;;;;16.20;14.70;;;;;;;14.13;69.92;98516.09;105193;1271;73235;-71
2022/04/21 09:41:11;;;;;;;15.60;14.00;;;;;;;14.05;70.74;98512.89;105212;1270;61304;-72
2022/04/21 09:43:39;;;;;;;17.50;15.70;;;;;;;14.06;70.61;98511.55;104964;1270;61298;-72
2022/04/21 09:46:23;;;;;;;19.60;17.40;;;;;;;14.09;70.64;98508.46;105216;1270;75375;-73
2022/04/21 09:48:54;;;;;;;16.60;15.10;;;;;;;14.19;70.79;98503.77;105276;1270;70484;-71
2022/04/21 09:51:27;;;;;;;16.30;14.80;;;;;;;14.34;70.85;98500.49;105283;1270;73390;-72
2022/04/21 09:54:02;;;;;;;16.30;14.80;;;;;;;14.45;68.64;98502.69;105499;1270;61277;-72
2022/04/21 09:56:33;;;;;;;16.70;14.80;;;;;;;14.31;66.77;98499.68;105628;1270;62049;-73
2022/04/21 09:59:08;;;;;;;15.90;14.40;;;;;;;14.34;67.57;98497.80;105174;1270;76379;-71
2022/04/21 10:01:39;;;;;;;16.50;15.00;;;;;;;14.47;66.33;98493.55;105427;1270;69180;-72
2022/04/21 10:04:06;;;;;;;17.40;15.80;;;;;;;14.57;66.85;98491.77;105179;1271;71918;-72
2022/04/21 10:06:35;;;;;;;15.60;14.10;;;;;;;14.72;65.99;98491.34;105272;1270;61244;-71
2022/04/21 10:09:02;;;;;;;16.80;15.30;;;;;;;14.76;64.97;98484.36;105215;1270;61292;-73
2022/04/21 10:11:29;;;;;;;15.50;14.10;;;;;;;14.93;65.43;98482.89;105213;1270;75156;-75
2022/04/21 10:13:56;;;;;;;17.70;16.00;;;;;;;14.97;62.52;98484.55;105169;1271;68426;-75
2022/04/21 10:16:28;;;;;;;16.80;15.30;;;;;;;14.92;59.63;98481.92;105054;1271;73317;-75
2022/04/21 10:18:57;;;;;;;16.60;15.10;;;;;;;14.84;58.84;98486.41;105106;1270;61364;-74
2022/04/21 10:21:48;;;;;;;14.80;13.50;;;;;;;14.89;56.89;98481.14;105285;1270;61157;-73
2022/04/21 10:24:25;;;;;;;15.20;13.70;;;;;;;14.91;54.82;98485.95;105185;1270;75098;-75
2022/04/21 10:26:53;;;;;;;14.50;13.30;;;;;;;14.77;54.13;98488.23;105280;1270;69273;-75
2022/04/21 10:29:22;;;;;;;15.60;14.00;;;;;;;14.84;55.44;98486.79;105201;1270;74393;-73
2022/04/21 10:31:52;;;;;;;14.30;12.80;;;;;;;15.29;55.89;98480.14;105162;1272;61282;-75
2022/04/21 10:34:40;;;;;;;16.40;14.80;;;;;;;15.55;53.32;98478.53;105027;1271;61061;-73
2022/04/21 10:37:15;;;;;;;15.50;14.10;;;;;;;15.50;54.73;98479.20;105203;1270;76701;-74
2022/04/21 10:40:11;;;;;;;13.60;12.40;;;;;;;15.65;54.61;98480.14;105013;1271;69616;-75
2022/04/21 10:42:52;;;;;;;11.10;10.10;;;;;;;15.56;53.58;98484.47;105174;1270;74297;-73
2022/04/21 10:45:27;;;;;;;10.20;9.30;;;;;;;15.46;51.70;98481.56;105229;1270;61291;-74
2022/04/21 10:48:12;;;;;;;11.20;10.00;;;;;;;15.14;49.95;98482.60;105254;1270;61393;-74
2022/04/21 10:50:40;;;;;;;10.50;9.50;;;;;;;14.70;49.65;98486.65;105236;1270;75913;-75
2022/04/21 10:58:47;;;;;;;11.90;9.70;;;;;;;14.48;50.58;98490.95;105264;1270;61368;-74
2022/04/21 11:01:18;;;;;;;10.40;9.50;;;;;;;14.43;50.56;98490.75;105219;1270;62093;-74
2022/04/21 11:04:03;;;;;;;11.10;9.70;;;;;;;14.44;51.40;98490.75;105180;1270;75230;-73
2022/04/21 11:06:44;;;;;;;10.20;9.30;;;;;;;14.45;49.24;98494.11;105238;1270;68133;-74
2022/04/21 11:09:37;;;;;;;9.30;8.30;;;;;;;14.37;50.09;98492.49;105248;1270;74243;-74
2022/04/21 11:12:06;;;;;;;9.40;8.60;;;;;;;14.54;50.05;98489.04;105068;1273;61355;-74
2022/04/21 11:14:34;;;;;;;9.10;8.30;;;;;;;14.76;50.00;98485.00;105278;1270;61245;-75
2022/04/21 11:17:02;;;;;;;8.30;7.50;;;;;;;15.00;50.08;98477.48;105276;1270;76532;-75
2022/04/21 11:19:28;;;;;;;8.90;8.10;;;;;;;15.31;49.23;98479.50;105424;1271;70530;-73
2022/04/21 11:21:56;;;;;;;8.40;7.60;;;;;;;15.43;49.19;98477.32;105024;1272;61373;-74
2022/04/21 11:24:23;;;;;;;7.90;7.20;;;;;;;15.72;49.45;98471.19;105227;1271;61371;-73
2022/04/21 11:26:59;;;;;;;7.80;7.00;;;;;;;16.05;47.92;98468.30;105271;1270;61202;-74
2022/04/21 11:29:26;;;;;;;8.70;8.00;;;;;;;16.25;46.13;98466.38;105251;1270;75442;-74
2022/04/21 11:32:01;;;;;;;8.30;7.60;;;;;;;16.25;46.80;98467.60;105245;1271;70125;-73
2022/04/21 11:34:27;;;;;;;8.00;7.30;;;;;;;16.33;46.04;98462.14;105205;1270;74363;-73
2022/04/21 11:36:56;;;;;;;8.50;7.20;;;;;;;16.22;45.04;98462.67;105206;1270;61219;-75
2022/04/21 11:39:23;;;;;;;7.90;7.20;;;;;;;16.22;45.40;98459.16;105216;1270;61879;-75
2022/04/21 11:41:52;;;;;;;7.50;6.40;;;;;;;16.22;43.02;98456.23;105239;1270;72723;-75
2022/04/21 11:44:23;;;;;;;7.40;6.60;;;;;;;16.07;42.95;98455.12;105266;1270;274137;-75
2022/04/21 11:46:50;;;;;;;7.20;5.80;;;;;;;16.26;44.68;98453.58;105197;1270;72130;-73
2022/04/21 11:49:17;;;;;;;6.90;6.30;;;;;;;16.69;44.87;98447.27;105199;1271;61451;-74
2022/04/21 11:51:44;;;;;;;7.90;7.20;;;;;;;17.02;43.63;98452.55;105246;1271;61291;-73
2022/04/21 11:54:11;;;;;;;7.60;6.90;;;;;;;17.02;43.57;98453.30;105140;1271;75459;-73
2022/04/21 11:56:39;;;;;;;8.20;7.30;;;;;;;16.99;43.67;98456.98;105150;1270;70094;-75
2022/04/21 11:59:07;;;;;;;8.10;7.30;;;;;;;17.02;43.62;98460.15;105210;1270;73152;-74